M I D A S
Marine Information and Data Acquisition System
Tripno 517 of the Zeeleeuw from 2003-06-17 06:38:05 to 2003-06-17 13:34:09
Back to CruiseResearch ActivitiesStationsMapUnderway DataData graphs

EquipmentUnitsComment
TimeDGPSUTC
LatitudeDGPSDM.mWGS84
LongitudeDGPSDM.mWGS84
TemperatureSBE03/SBE38deg celciusITS90
ConductivitySBE21S/mITS90
SalinitySBE21 Practical Salinity Units
ChlorophylAChelsea fluorimeterg/lCalibrated in Aceton
Missing or incorrect values are displayed as -999
Sea surface data collected by the RV Zeeleeuw from 2003-06-17 06:38:05 to 2003-06-17 13:34:09
Time Latitude Longitude Temperature Conductivity Salinity ChlorophylA
2003-06-17 06:39:09 51°13.61 2°56.09 -999 0.030148 0.145978 -0.74754
2003-06-17 06:40:09 51°13.61 2°56.09 -999 4.254364 27.867163 2.589691
2003-06-17 06:41:09 51°13.61 2°56.07 -999 4.033488 28.149258 6.904494
2003-06-17 06:42:13 51°13.62 2°56.01 -999 4.025376 28.434797 14.421691
2003-06-17 06:43:13 51°13.64 2°55.91 -999 4.040355 28.898832 19.141007
2003-06-17 06:44:13 51°13.68 2°55.82 -999 4.043836 29.026962 19.916324
2003-06-17 06:45:11 51°13.7 2°55.77 -999 4.084642 29.426359 19.950033
2003-06-17 06:46:09 51°13.71 2°55.78 -999 4.083483 29.457224 20.253418
2003-06-17 06:47:11 51°13.71 2°55.77 -999 4.026757 28.992234 20.455674
2003-06-17 06:48:13 51°13.69 2°55.75 -999 4.054488 29.250055 20.725349
2003-06-17 06:49:11 51°13.73 2°55.72 -999 4.129142 29.883831 21.2647
2003-06-17 06:50:09 51°13.81 2°55.65 -999 4.104889 29.68132 21.163571
2003-06-17 06:51:09 51°13.92 2°55.56 -999 3.997131 28.772417 20.927606
2003-06-17 06:52:09 51°14.03 2°55.48 -999 4.054593 29.251395 20.523093
2003-06-17 06:53:09 51°14.16 2°55.39 -999 4.133466 29.94148 20.927606
2003-06-17 06:54:09 51°14.27 2°55.25 -999 4.111427 29.751081 20.185999
2003-06-17 06:55:09 51°14.36 2°55.03 45.751558 4.031292 29.079045 20.489383
2003-06-17 06:56:09 51°14.42 2°54.76 41.70483 4.111322 29.752243 20.826477
2003-06-17 06:57:09 51°14.43 2°54.45 43.04746 4.304527 31.460021 23.017589
2003-06-17 06:58:09 51°14.37 2°54.14 43.030659 4.384165 32.192002 24.669349
2003-06-17 06:59:09 51°14.25 2°53.84 44.152369 4.406845 32.40698 24.399674
2003-06-17 07:00:09 51°14.13 2°53.54 45.966511 4.451257 32.832475 25.006443
2003-06-17 07:01:09 51°13.99 2°53.23 46.382276 4.476999 33.121058 24.06258
2003-06-17 07:02:09 51°13.86 2°52.91 44.955289 4.494619 33.35933 21.197281
2003-06-17 07:03:09 51°13.72 2°52.58 46.482273 4.489344 33.327023 19.781486
2003-06-17 07:04:09 51°13.58 2°52.24 43.043567 4.496307 33.407369 18.97246
2003-06-17 07:05:09 51°13.44 2°51.91 46.480433 4.508334 33.473854 17.051024
2003-06-17 07:06:09 51°13.3 2°51.58 45.284772 4.520257 33.648467 14.421691
2003-06-17 07:07:09 51°13.16 2°51.25 44.822027 4.520363 33.679659 14.152016
2003-06-17 07:08:09 51°13.04 2°50.9 43.339859 4.52279 33.734388 13.646375
2003-06-17 07:09:09 51°12.92 2°50.55 45.968709 4.521629 33.713585 14.556529
2003-06-17 07:10:09 51°12.8 2°50.2 42.517597 4.526904 33.764064 13.983469
2003-06-17 07:11:09 51°12.68 2°49.85 43.117589 4.526271 33.741807 13.848631
2003-06-17 07:12:09 51°12.56 2°49.5 43.347617 4.534078 33.795846 12.837349
2003-06-17 07:13:09 51°12.44 2°49.15 44.848263 4.539353 33.824637 12.432836
2003-06-17 07:14:09 51°12.32 2°48.8 44.176627 4.543679 33.858973 11.826067
2003-06-17 07:15:09 51°12.2 2°48.45 42.732033 4.546316 33.878637 10.848494
2003-06-17 07:16:09 51°12.08 2°48.1 43.330399 4.554545 33.93968 9.601247
2003-06-17 07:17:09 51°11.96 2°47.75 42.970558 4.553701 33.924413 9.466409
2003-06-17 07:18:09 51°11.86 2°47.39 19.797306 4.557077 33.952583 9.028187
2003-06-17 07:19:09 51°11.76 2°47.02 19.893338 4.558028 34.010551 7.983195
2003-06-17 07:20:09 51°11.66 2°46.66 19.183585 4.556763 34.047206 6.702238
2003-06-17 07:21:09 51°11.56 2°46.29 19.166102 4.55497 34.068888 6.095469
2003-06-17 07:22:09 51°11.46 2°45.92 19.341349 4.554653 34.082834 5.994341
2003-06-17 07:23:09 51°11.36 2°45.56 18.872206 4.553493 34.087937 6.02805
2003-06-17 07:24:09 51°11.26 2°45.19 18.993944 4.554654 34.099449 6.466272
2003-06-17 07:25:09 51°11.16 2°44.83 19.229462 4.554548 34.104502 6.668529
2003-06-17 07:26:09 51°11.06 2°44.46 19.575174 4.555498 34.107715 6.735947
2003-06-17 07:27:09 51°10.96 2°44.1 19.44747 4.561933 34.11655 6.634819
2003-06-17 07:28:09 51°10.87 2°43.74 19.346046 4.564465 34.117596 6.870785
2003-06-17 07:29:09 51°10.77 2°43.37 19.190135 4.56457 34.125001 7.005623
2003-06-17 07:30:09 51°10.68 2°43.01 19.205402 4.563516 34.130401 6.870785
2003-06-17 07:31:09 51°10.58 2°42.66 19.206016 4.564465 34.154983 6.870785
2003-06-17 07:32:09 51°10.49 2°42.3 19.607409 4.56552 34.14957 6.702238
2003-06-17 07:33:09 51°10.4 2°41.94 19.038715 4.563199 34.146747 6.837076
2003-06-17 07:34:09 51°10.3 2°41.58 19.216656 4.561195 34.153119 6.735947
2003-06-17 07:35:09 51°10.21 2°41.22 19.216328 4.558558 34.145266 6.5674
2003-06-17 07:36:09 51°10.11 2°40.85 19.209044 4.558347 34.139928 6.499982
2003-06-17 07:37:09 51°10.02 2°40.49 19.222752 4.560245 34.140994 6.533691
2003-06-17 07:38:09 51°9.93 2°40.13 19.557829 4.560562 34.129389 7.106751
2003-06-17 07:39:09 51°9.83 2°39.77 19.399613 4.563093 34.106113 7.376426
2003-06-17 07:40:09 51°9.74 2°39.4 19.099814 4.568051 34.081921 7.544973
2003-06-17 07:41:09 51°9.65 2°39.04 19.20622 4.567523 34.088148 7.477554
2003-06-17 07:42:09 51°9.55 2°38.68 19.050898 4.562776 34.094579 7.039332
2003-06-17 07:43:09 51°9.47 2°38.33 18.820867 4.553283 34.130145 6.365144
2003-06-17 07:44:09 51°9.41 2°38.01 18.808561 4.545477 34.158144 5.623537
2003-06-17 07:45:09 51°9.35 2°37.71 18.738596 4.536616 34.165467 5.320153
2003-06-17 07:46:09 51°9.3 2°37.5 18.652062 4.530709 34.185825 4.747093
2003-06-17 07:47:09 51°9.27 2°37.35 18.65759 4.527228 34.188879 4.645965
2003-06-17 07:48:09 51°9.23 2°37.25 18.439041 4.528916 34.183295 4.679674
2003-06-17 07:49:09 51°9.19 2°37.19 18.663777 4.516364 34.243562 3.702101
2003-06-17 07:50:09 51°9.15 2°37.17 18.617732 4.508453 34.238807 3.600973
2003-06-17 07:51:09 51°9.12 2°37.17 18.656022 4.510562 34.222158 3.76952
2003-06-17 07:52:09 51°9.11 2°37.18 18.536295 4.50919 34.19052 3.870648
2003-06-17 07:53:09 51°9.1 2°37.19 18.697837 4.51035 34.180409 4.106614
2003-06-17 07:54:09 51°9.11 2°37.19 18.467462 4.513093 34.182525 4.106614
2003-06-17 07:55:09 51°9.12 2°37.2 18.884541 4.518684 34.199731 3.971777
2003-06-17 07:56:09 51°9.13 2°37.22 18.478133 4.51879 34.199418 4.140324
2003-06-17 07:57:09 51°9.13 2°37.25 18.642697 4.51995 34.202611 4.241452
2003-06-17 07:58:09 51°9.12 2°37.27 18.727677 4.521849 34.198782 4.34258
2003-06-17 07:59:09 51°9.12 2°37.3 18.850202 4.523325 34.193197 4.443708
2003-06-17 08:00:09 51°9.13 2°37.31 18.83424 4.524486 34.184942 4.443708
2003-06-17 08:01:09 51°9.13 2°37.33 18.714407 4.525962 34.178774 4.409999
2003-06-17 08:02:09 51°9.14 2°37.34 18.692848 4.524802 34.159336 4.544836
2003-06-17 08:03:09 51°9.14 2°37.36 18.972882 4.525224 34.1611 4.544836
2003-06-17 08:04:09 51°9.14 2°37.37 18.606877 4.52765 34.168986 4.578546
2003-06-17 08:05:09 51°9.14 2°37.39 19.020211 4.527439 34.161794 4.578546
2003-06-17 08:06:09 51°9.14 2°37.4 18.927164 4.529127 34.17065 4.578546
2003-06-17 08:07:09 51°9.13 2°37.4 18.941133 4.530076 34.169059 4.612255
2003-06-17 08:08:09 51°9.13 2°37.41 18.863693 4.530814 34.163886 4.612255
2003-06-17 08:09:09 51°9.12 2°37.41 18.642697 4.529759 34.142977 4.645965
2003-06-17 08:10:09 51°9.12 2°37.41 18.674335 4.533135 34.162476 4.645965
2003-06-17 08:11:09 51°9.11 2°37.41 18.819139 4.533135 34.15408 4.713383
2003-06-17 08:12:09 51°9.1 2°37.4 18.690746 4.53419 34.155787 4.713383
2003-06-17 08:13:09 51°9.09 2°37.4 18.67784 4.535034 34.150322 4.713383
2003-06-17 08:14:09 51°9.08 2°37.4 18.722773 4.535878 34.148454 4.713383
2003-06-17 08:15:09 51°9.07 2°37.39 18.993451 4.537143 34.146553 4.747093
2003-06-17 08:16:09 51°9.06 2°37.38 18.970254 4.537249 34.145647 4.848221
2003-06-17 08:17:09 51°9.05 2°37.38 18.917508 4.53746 34.140843 4.88193
2003-06-17 08:18:09 51°9.03 2°37.37 19.026776 4.538093 34.131822 4.848221
2003-06-17 08:19:09 51°9.02 2°37.36 18.937395 4.539253 34.136814 5.117896
2003-06-17 08:20:09 51°9.01 2°37.35 18.542989 4.540202 34.133454 5.084187
2003-06-17 08:21:09 51°9 2°37.35 19.22488 4.540519 34.127158 5.151606
2003-06-17 08:22:09 51°8.99 2°37.36 18.867559 4.540519 34.122978 5.219024
2003-06-17 08:23:09 51°8.96 2°37.36 19.041218 4.541362 34.121723 5.320153
2003-06-17 08:24:09 51°8.94 2°37.35 18.879978 4.541995 34.118098 5.353862
2003-06-17 08:25:09 51°8.91 2°37.33 18.984953 4.542839 34.122812 5.4887
2003-06-17 08:26:09 51°8.89 2°37.29 19.014794 4.543472 34.125751 5.45499
2003-06-17 08:27:09 51°8.86 2°37.25 19.008556 4.542206 34.119873 5.4887
2003-06-17 08:28:09 51°8.86 2°37.15 18.865832 4.541573 34.115741 5.623537
2003-06-17 08:29:09 51°8.89 2°36.94 19.085221 4.541468 34.123208 5.758375
2003-06-17 08:30:09 51°8.93 2°36.65 18.961876 4.541152 34.146232 5.623537
2003-06-17 08:31:09 51°8.98 2°36.35 19.022058 4.534718 34.179435 5.084187
2003-06-17 08:32:09 51°9 2°36.04 18.530345 4.524803 34.21113 4.544836
2003-06-17 08:33:09 51°9.03 2°35.75 18.336803 4.515836 34.222731 4.072905
2003-06-17 08:34:09 51°9.05 2°35.47 18.73254 4.51341 34.22272 3.836939
2003-06-17 08:35:09 51°9.06 2°35.19 18.639025 4.507081 34.232 3.499845
2003-06-17 08:36:09 51°9.04 2°34.95 18.513441 4.513305 34.221824 3.432426
2003-06-17 08:37:09 51°9.02 2°34.75 18.785508 4.519107 34.226276 4.241452
2003-06-17 08:38:09 51°9 2°34.56 18.557655 4.515415 34.229442 3.904358
2003-06-17 08:39:09 51°8.99 2°34.38 18.325737 4.509613 34.243818 3.735811
2003-06-17 08:40:09 51°8.97 2°34.19 18.293236 4.501491 34.243377 3.297589
2003-06-17 08:41:09 51°8.96 2°34 18.582848 4.49685 34.254381 3.263879
2003-06-17 08:42:09 51°8.96 2°33.82 18.450419 4.493474 34.259751 3.331298
2003-06-17 08:43:09 51°8.96 2°33.63 18.149077 4.490099 34.263918 2.960494
2003-06-17 08:44:09 51°8.96 2°33.45 18.171595 4.481449 34.252987 2.690819
2003-06-17 08:45:09 51°8.96 2°33.26 18.273828 4.480606 34.274579 2.65711
2003-06-17 08:46:09 51°8.97 2°33.08 18.001204 4.479762 34.277784 2.555982
2003-06-17 08:47:09 51°9.01 2°32.97 17.768962 4.480395 34.271545 2.488563
2003-06-17 08:48:09 51°9.04 2°32.91 18.190534 4.486196 34.258082 2.724529
2003-06-17 08:49:09 51°9.07 2°32.89 18.490621 4.491681 34.24566 2.960494
2003-06-17 08:50:09 51°9.09 2°32.89 18.382578 4.500225 34.241723 3.331298
2003-06-17 08:51:09 51°9.11 2°32.89 18.333156 4.504761 34.232907 3.398717
2003-06-17 08:52:09 51°9.12 2°32.91 18.61344 4.508453 34.233949 3.432426
2003-06-17 08:53:09 51°9.12 2°32.92 18.385228 4.510351 34.233101 3.499845
2003-06-17 08:54:09 51°9.12 2°32.93 18.289587 4.510562 34.230648 3.567264
2003-06-17 08:55:09 51°9.12 2°32.93 18.564057 4.510668 34.227299 3.499845
2003-06-17 08:56:09 51°9.12 2°32.93 18.575374 4.511512 34.228407 3.432426
2003-06-17 08:57:09 51°9.11 2°32.92 18.546749 4.51225 34.2268 3.297589
2003-06-17 08:58:09 51°9.11 2°32.91 18.444503 4.513199 34.231835 3.432426
2003-06-17 08:59:09 51°9.11 2°32.9 18.693302 4.513516 34.230887 3.533554
2003-06-17 09:00:09 51°9.1 2°32.88 18.514847 4.513727 34.227831 3.702101
2003-06-17 09:01:09 51°9.1 2°32.86 18.36162 4.512566 34.221005 3.634683
2003-06-17 09:02:09 51°9.1 2°32.85 18.562405 4.514782 34.228914 3.668392
2003-06-17 09:03:09 51°9.09 2°32.82 18.506662 4.514676 34.225595 3.702101
2003-06-17 09:04:09 51°9.09 2°32.8 18.553359 4.515942 34.224837 3.634683
2003-06-17 09:05:09 51°9.09 2°32.78 18.486982 4.516364 34.225998 3.735811
2003-06-17 09:06:09 51°9.08 2°32.76 18.545551 4.516997 34.224711 3.76952
2003-06-17 09:07:09 51°9.08 2°32.74 18.6297 4.517208 34.225897 3.836939
2003-06-17 09:08:09 51°9.07 2°32.72 18.526212 4.517419 34.227082 3.80323
2003-06-17 09:09:09 51°9.07 2°32.72 18.570583 4.517419 34.227687 3.904358
2003-06-17 09:10:09 51°9.07 2°32.72 18.499717 4.51763 34.222216 3.938067
2003-06-17 09:11:09 51°9.06 2°32.73 18.539436 4.517208 34.218636 4.072905
2003-06-17 09:12:09 51°9.04 2°32.75 18.613275 4.517841 34.222796 4.039195
2003-06-17 09:13:09 51°9.02 2°32.77 18.378147 4.517946 34.220062 4.174033
2003-06-17 09:14:09 51°8.99 2°32.78 18.501784 4.519107 34.226881 4.174033
2003-06-17 09:15:09 51°8.95 2°32.78 18.477968 4.514887 34.206808 4.174033
2003-06-17 09:16:09 51°8.91 2°32.79 18.64934 4.51552 34.22731 4.039195
2003-06-17 09:17:09 51°8.85 2°32.8 18.380797 4.5132 34.237898 3.938067
2003-06-17 09:18:09 51°8.77 2°32.8 18.407462 4.504128 34.234813 3.735811
2003-06-17 09:19:09 51°8.68 2°32.77 18.366136 4.494318 34.274289 3.398717
2003-06-17 09:20:09 51°8.59 2°32.71 18.223996 4.484509 34.296348 3.23017
2003-06-17 09:21:09 51°8.51 2°32.64 18.123394 4.478918 34.288364 3.129042
2003-06-17 09:22:09 51°8.45 2°32.56 18.262545 4.481977 34.280802 3.297589
2003-06-17 09:23:09 51°8.4 2°32.47 18.098574 4.485563 34.27165 3.331298
2003-06-17 09:24:09 51°8.38 2°32.38 18.145836 4.487568 34.27287 3.297589
2003-06-17 09:25:09 51°8.39 2°32.29 17.962801 4.488095 34.273707 3.297589
2003-06-17 09:26:09 51°8.41 2°32.24 18.065966 4.487673 34.274997 3.23017
2003-06-17 09:27:09 51°8.43 2°32.24 18.15988 4.485247 34.286718 3.095332
2003-06-17 09:28:09 51°8.45 2°32.26 18.171429 4.481977 34.292466 2.960494
2003-06-17 09:29:09 51°8.46 2°32.3 18.21777 4.479657 34.295308 3.027913
2003-06-17 09:30:09 51°8.46 2°32.32 17.881009 4.478286 34.290927 3.027913
2003-06-17 09:31:09 51°8.48 2°32.32 17.973008 4.478707 34.292701 2.893076
2003-06-17 09:32:09 51°8.48 2°32.31 18.063054 4.480606 34.292385 3.061623
2003-06-17 09:33:09 51°8.48 2°32.31 17.972258 4.479551 34.287645 3.162751
2003-06-17 09:34:09 51°8.48 2°32.31 17.984171 4.480079 34.279881 3.129042
2003-06-17 09:35:09 51°8.47 2°32.31 18.232089 4.480922 34.282814 3.162751
2003-06-17 09:36:09 51°8.47 2°32.31 18.268477 4.47839 34.250086 3.129042
2003-06-17 09:37:09 51°8.47 2°32.31 18.106058 4.482927 34.285251 3.129042
2003-06-17 09:38:09 51°8.47 2°32.31 18.420046 4.481766 34.2747 3.095332
2003-06-17 09:39:09 51°8.47 2°32.31 18.051404 4.483032 34.278179 3.095332
2003-06-17 09:40:09 51°8.47 2°32.32 17.949968 4.483032 34.273273 3.19646
2003-06-17 09:41:09 51°8.47 2°32.33 18.166901 4.483559 34.278402 3.095332
2003-06-17 09:42:09 51°8.48 2°32.33 18.143717 4.485458 34.281779 2.893076
2003-06-17 09:43:09 51°8.48 2°32.33 18.287182 4.485669 34.276229 2.926785
2003-06-17 09:44:09 51°8.48 2°32.34 17.998414 4.486513 34.273034 2.994204
2003-06-17 09:45:09 51°8.48 2°32.34 18.272998 4.488201 34.277059 3.129042
2003-06-17 09:46:09 51°8.49 2°32.34 17.870163 4.488412 34.279476 3.162751
2003-06-17 09:47:09 51°8.49 2°32.33 18.127218 4.488728 34.269325 3.095332
2003-06-17 09:48:09 51°8.49 2°32.33 18.384649 4.489994 34.265463 3.297589
2003-06-17 09:49:09 51°8.49 2°32.33 18.181812 4.492209 34.270327 3.297589
2003-06-17 09:50:09 51°8.48 2°32.34 18.17849 4.491259 34.266495 3.398717
2003-06-17 09:51:09 51°8.47 2°32.34 18.249891 4.491365 34.263117 3.331298
2003-06-17 09:52:09 51°8.45 2°32.35 18.090922 4.492103 34.272483 3.331298
2003-06-17 09:53:09 51°8.43 2°32.35 18.158717 4.489783 34.277732 3.331298
2003-06-17 09:54:09 51°8.4 2°32.35 18.008782 4.48799 34.280154 3.331298
2003-06-17 09:55:09 51°8.37 2°32.35 17.967967 4.485986 34.281389 3.297589
2003-06-17 09:56:09 51°8.35 2°32.35 18.082521 4.485985 34.278324 3.263879
2003-06-17 09:57:09 51°8.32 2°32.34 18.195641 4.486513 34.282225 3.297589
2003-06-17 09:58:09 51°8.3 2°32.33 18.169559 4.486935 34.276031 3.432426
2003-06-17 09:59:09 51°8.27 2°32.31 18.241178 4.4882 34.273997 3.365007
2003-06-17 10:00:09 51°8.25 2°32.3 18.317862 4.488411 34.269068 3.365007
2003-06-17 10:01:09 51°8.23 2°32.29 18.255534 4.489044 34.266524 3.432426
2003-06-17 10:02:09 51°8.21 2°32.27 18.042499 4.489994 34.272804 3.499845
2003-06-17 10:03:09 51°8.18 2°32.26 18.12144 4.491154 34.271098 3.567264
2003-06-17 10:04:09 51°8.16 2°32.24 18.222211 4.487461 34.226723 3.567264
2003-06-17 10:05:09 51°8.15 2°32.23 18.411933 4.492103 34.265758 3.702101
2003-06-17 10:06:09 51°8.13 2°32.21 18.319064 4.493158 34.258881 3.668392
2003-06-17 10:07:09 51°8.11 2°32.2 18.258645 4.494951 34.263199 3.634683
2003-06-17 10:08:09 51°8.1 2°32.19 18.296719 4.495584 34.265548 3.668392
2003-06-17 10:09:09 51°8.08 2°32.18 18.149077 4.496639 34.263563 3.702101
2003-06-17 10:10:09 51°8.07 2°32.16 18.244788 4.498538 34.261459 3.735811
2003-06-17 10:11:09 51°8.06 2°32.15 18.221215 4.499698 34.251236 3.735811
2003-06-17 10:12:09 51°8.05 2°32.14 18.280215 4.501069 34.256223 3.76952
2003-06-17 10:13:09 51°8.04 2°32.13 18.480738 4.500753 34.260838 3.76952
2003-06-17 10:14:09 51°8.03 2°32.12 18.248937 4.499065 34.251324 3.76952
2003-06-17 10:15:09 51°8.01 2°32.11 18.601304 4.500964 34.256543 3.76952
2003-06-17 10:16:09 51°8 2°32.09 18.605225 4.502229 34.255757 3.80323
2003-06-17 10:17:09 51°7.99 2°32.08 18.511292 4.502862 34.256278 3.80323
2003-06-17 10:18:09 51°7.98 2°32.07 18.490001 4.502968 34.252306 3.836939
2003-06-17 10:19:09 51°7.97 2°32.06 18.319603 4.505499 34.256219 3.870648
2003-06-17 10:20:09 51°7.96 2°32.04 18.409656 4.505605 34.246169 3.80323
2003-06-17 10:21:09 51°7.95 2°32.03 18.560299 4.504972 34.245646 3.904358
2003-06-17 10:22:09 51°7.94 2°32.02 18.515467 4.506871 34.249648 3.870648
2003-06-17 10:23:09 51°7.93 2°32.01 18.252671 4.506238 34.252165 3.904358
2003-06-17 10:24:09 51°7.92 2°31.99 18.47896 4.507293 34.252023 3.938067
2003-06-17 10:25:09 51°7.91 2°31.99 18.595276 4.509402 34.249919 3.904358
2003-06-17 10:26:09 51°7.9 2°32 18.263665 4.510563 34.247034 4.039195
2003-06-17 10:27:09 51°7.9 2°32.03 18.412968 4.510879 34.245475 4.140324
2003-06-17 10:28:09 51°7.89 2°32.07 18.445579 4.511406 34.238428 4.275161
2003-06-17 10:29:09 51°7.9 2°32.11 18.545468 4.514676 34.238925 4.275161
2003-06-17 10:30:09 51°7.9 2°32.16 18.310276 4.514571 34.24106 4.34258
2003-06-17 10:31:09 51°7.9 2°32.21 18.316204 4.514465 34.243195 4.511127
2003-06-17 10:32:09 51°7.91 2°32.26 18.264204 4.516575 34.245354 4.409999
2003-06-17 10:33:09 51°7.92 2°32.31 18.557655 4.518685 34.246908 4.207742
2003-06-17 10:34:09 51°7.92 2°32.36 18.691777 4.519529 34.241354 4.241452
2003-06-17 10:35:09 51°7.93 2°32.41 18.567196 4.519001 34.239299 4.308871
2003-06-17 10:36:09 51°7.94 2°32.46 18.479332 4.519529 34.237722 4.409999
2003-06-17 10:37:09 51°7.96 2°32.5 18.63622 4.523221 34.232746 4.443708
2003-06-17 10:38:09 51°7.97 2°32.54 18.733858 4.52533 34.221632 4.544836
2003-06-17 10:39:09 51°7.98 2°32.59 18.539146 4.527123 34.223543 4.612255
2003-06-17 10:40:09 51°7.99 2°32.64 18.737772 4.527334 34.215679 4.713383
2003-06-17 10:41:09 51°8 2°32.68 18.733858 4.530077 34.21237 4.949349
2003-06-17 10:42:09 51°8.01 2°32.72 18.583509 4.531131 34.194203 5.252734
2003-06-17 10:43:09 51°8.02 2°32.75 18.782956 4.536511 34.192774 5.4887
2003-06-17 10:44:09 51°8.04 2°32.78 18.655404 4.538199 34.188413 5.556118
2003-06-17 10:45:09 51°8.05 2°32.81 18.765495 4.538937 34.184445 5.589828
2003-06-17 10:46:09 51°8.05 2°32.85 18.716303 4.539359 34.178411 5.556118
2003-06-17 10:47:09 51°8.06 2°32.89 18.865955 4.541891 34.184777 5.623537
2003-06-17 10:48:09 51°8.07 2°32.92 18.745312 4.540625 34.166319 5.690956
2003-06-17 10:49:09 51°8.07 2°32.95 18.746795 4.541996 34.161116 5.724665
2003-06-17 10:50:09 51°8.07 2°32.99 19.52553 4.543051 34.174194 5.724665
2003-06-17 10:51:09 51°8.07 2°33.01 19.195579 4.543684 34.174738 5.690956
2003-06-17 10:52:09 51°8.06 2°33.02 19.132597 4.544528 34.170478 5.690956
2003-06-17 10:53:09 51°8.06 2°33.03 18.740615 4.545372 34.175791 5.657247
2003-06-17 10:54:09 51°8.06 2°33.02 18.844937 4.545055 34.167743 5.623537
2003-06-17 10:55:09 51°8.06 2°33.02 18.83712 4.545266 34.168921 5.623537
2003-06-17 10:56:09 51°8.06 2°33.01 19.034941 4.544845 34.171947 5.522409
2003-06-17 10:57:09 51°8.05 2°33 19.170933 4.544845 34.171947 5.589828
2003-06-17 10:58:09 51°8.05 2°33 18.897368 4.545056 34.173126 5.623537
2003-06-17 10:59:09 51°8.05 2°33 18.933903 4.544422 34.168991 5.589828
2003-06-17 11:00:09 51°8.05 2°32.99 18.935916 4.544422 34.168991 5.623537
2003-06-17 11:01:09 51°8.05 2°32.99 19.073085 4.545583 34.173979 5.690956
2003-06-17 11:02:09 51°8.05 2°32.99 18.875084 4.544739 34.16448 5.623537
2003-06-17 11:03:09 51°8.06 2°32.99 19.047945 4.545583 34.169792 5.657247
2003-06-17 11:04:09 51°8.06 2°32.99 18.945036 4.545372 34.165026 5.657247
2003-06-17 11:05:09 51°8.06 2°32.99 19.11547 4.545266 34.165931 5.690956
2003-06-17 11:06:09 51°8.07 2°33 18.845307 4.545161 34.165043 5.589828
2003-06-17 11:07:09 51°8.07 2°33.01 18.844937 4.54611 34.170048 5.724665
2003-06-17 11:08:09 51°8.07 2°33.01 18.641295 4.544844 34.162976 5.657247
2003-06-17 11:09:09 51°8.07 2°33.03 19.044377 4.54495 34.164462 5.657247
2003-06-17 11:10:09 51°8.07 2°33.04 19.176379 4.54495 34.166854 5.623537
2003-06-17 11:11:09 51°8.06 2°33.05 18.735053 4.544528 34.164497 5.556118
2003-06-17 11:12:09 51°8.05 2°33.06 18.968735 4.544106 34.163933 5.556118
2003-06-17 11:13:09 51°8.04 2°33.07 18.869369 4.544106 34.163933 5.623537
2003-06-17 11:14:09 51°8.02 2°33.08 19.0381 4.544211 34.164224 5.623537
2003-06-17 11:15:09 51°7.99 2°33.08 18.804939 4.543579 34.171455 5.45499
2003-06-17 11:16:09 51°7.97 2°33.07 19.041669 4.541152 34.165975 5.320153
2003-06-17 11:17:09 51°7.94 2°33.05 19.110511 4.541258 34.162674 5.252734
2003-06-17 11:18:09 51°7.89 2°32.99 18.722856 4.541469 34.161459 5.4887
2003-06-17 11:19:09 51°7.82 2°32.79 19.032603 4.542524 34.158979 5.724665
2003-06-17 11:20:09 51°7.72 2°32.52 19.021812 4.544422 34.160021 6.230306
2003-06-17 11:21:09 51°7.61 2°32.25 19.17904 4.546216 34.167946 6.432563
2003-06-17 11:22:09 51°7.51 2°31.98 18.714984 4.545056 34.174322 6.331435
2003-06-17 11:23:09 51°7.4 2°31.71 18.827204 4.540203 34.189726 5.893212
2003-06-17 11:24:09 51°7.3 2°31.45 18.76949 4.534402 34.218235 5.45499
2003-06-17 11:25:09 51°7.2 2°31.2 18.408166 4.528389 34.234866 4.88193
2003-06-17 11:26:09 51°7.09 2°31.05 18.607537 4.523326 34.239685 4.645965
2003-06-17 11:27:09 51°6.97 2°30.96 18.52208 4.520795 34.239989 4.645965
2003-06-17 11:28:09 51°6.84 2°30.93 18.518691 4.519423 34.241064 4.88193
2003-06-17 11:29:09 51°6.72 2°31.01 18.328224 4.518579 34.239956 4.578546
2003-06-17 11:30:09 51°6.61 2°31.12 18.514475 4.516575 34.239901 4.679674
2003-06-17 11:31:09 51°6.5 2°31.21 18.399596 4.51552 34.245487 4.747093
2003-06-17 11:32:09 51°6.38 2°31.3 18.318608 4.513305 34.238187 4.91564
2003-06-17 11:33:09 51°6.27 2°31.4 18.507034 4.511512 34.242965 4.713383
2003-06-17 11:34:09 51°6.27 2°31.55 18.302234 4.508031 34.240683 4.34258
2003-06-17 11:35:09 51°6.34 2°31.68 18.249808 4.512461 34.241327 4.241452
2003-06-17 11:36:09 51°6.42 2°31.83 18.299663 4.51225 34.243174 4.612255
2003-06-17 11:37:09 51°6.49 2°31.99 18.386429 4.510563 34.243998 4.578546
2003-06-17 11:38:09 51°6.57 2°32.15 18.422364 4.507292 34.231973 4.376289
2003-06-17 11:39:09 51°6.64 2°32.3 18.159215 4.507082 34.253876 4.005486
2003-06-17 11:40:09 51°6.7 2°32.41 18.414086 4.50455 34.252394 3.702101
2003-06-17 11:41:09 51°6.75 2°32.5 18.16042 4.503073 34.253205 3.499845
2003-06-17 11:42:09 51°6.78 2°32.57 18.495169 4.501596 34.250364 3.600973
2003-06-17 11:43:09 51°6.8 2°32.64 18.631268 4.500542 34.245028 3.499845
2003-06-17 11:44:09 51°6.8 2°32.68 18.163162 4.501491 34.251901 3.365007
2003-06-17 11:45:09 51°6.8 2°32.71 18.433124 4.501702 34.248827 3.263879
2003-06-17 11:46:09 51°6.81 2°32.74 18.267979 4.501174 34.24616 3.331298
2003-06-17 11:47:09 51°6.81 2°32.77 18.293444 4.502124 34.256076 3.466136
2003-06-17 11:48:09 51°6.81 2°32.79 18.125514 4.501807 34.255207 3.466136
2003-06-17 11:49:09 51°6.82 2°32.82 18.236156 4.501702 34.254308 3.466136
2003-06-17 11:50:09 51°6.82 2°32.84 18.132621 4.502018 34.246044 3.365007
2003-06-17 11:51:11 51°6.81 2°32.82 18.090091 4.500858 34.242854 3.702101
2003-06-17 11:52:11 51°6.79 2°32.79 18.156432 4.500752 34.245608 3.668392
2003-06-17 11:53:09 51°6.78 2°32.77 18.361413 4.500753 34.249871 3.533554
2003-06-17 11:54:09 51°6.76 2°32.76 18.330089 4.501069 34.248305 3.466136
2003-06-17 11:55:09 51°6.75 2°32.76 18.390322 4.501491 34.254337 3.600973
2003-06-17 11:56:09 51°6.74 2°32.77 18.324991 4.500858 34.252598 3.533554
2003-06-17 11:57:09 51°6.74 2°32.78 18.258687 4.500753 34.249262 3.600973
2003-06-17 11:58:09 51°6.74 2°32.79 18.32723 4.496744 34.21267 3.466136
2003-06-17 11:59:09 51°6.74 2°32.8 18.369822 4.500225 34.245376 3.466136
2003-06-17 12:00:09 51°6.77 2°32.82 18.614141 4.50244 34.249639 3.297589
2003-06-17 12:01:09 51°6.8 2°32.83 18.305094 4.500436 34.215538 3.129042
2003-06-17 12:02:09 51°6.84 2°32.81 18.384483 4.505394 34.251063 3.095332
2003-06-17 12:03:09 51°6.89 2°32.8 18.437469 4.500962 34.178143 3.533554
2003-06-17 12:04:09 51°6.93 2°32.83 18.207474 4.514571 34.2247 3.702101
2003-06-17 12:05:09 51°6.95 2°32.89 18.550756 4.517207 34.200499 3.971777
2003-06-17 12:06:09 51°6.96 2°32.94 18.572689 4.521533 34.216022 4.241452
2003-06-17 12:07:09 51°6.96 2°32.99 18.686046 4.524697 34.21446 4.308871
2003-06-17 12:08:09 51°6.96 2°33.04 18.656559 4.524908 34.209611 4.376289
2003-06-17 12:09:09 51°6.94 2°33.08 18.648143 4.525014 34.212917 4.443708
2003-06-17 12:10:09 51°6.93 2°33.12 18.500172 4.525014 34.21352 4.34258
2003-06-17 12:11:09 51°6.92 2°33.15 18.625078 4.523853 34.220591 4.308871
2003-06-17 12:12:09 51°6.89 2°33.12 18.62937 4.518578 34.191592 4.241452
2003-06-17 12:13:09 51°6.86 2°32.97 18.473997 4.51974 34.246171 3.499845
2003-06-17 12:14:09 51°6.82 2°32.74 18.483674 4.51647 34.241428 3.398717
2003-06-17 12:15:09 51°6.76 2°32.5 18.711687 4.515731 34.25213 3.567264
2003-06-17 12:16:09 51°6.71 2°32.25 18.365639 4.514571 34.239241 3.567264
2003-06-17 12:17:09 51°6.66 2°32.01 18.373633 4.514887 34.247993 3.80323
2003-06-17 12:18:09 51°6.61 2°31.77 18.680067 4.515204 34.23795 3.836939
2003-06-17 12:19:09 51°6.55 2°31.52 18.640016 4.519212 34.248356 3.938067
2003-06-17 12:20:09 51°6.56 2°31.27 18.69289 4.519528 34.228041 4.072905
2003-06-17 12:21:09 51°6.69 2°31.12 18.432669 4.52301 34.240025 4.308871
2003-06-17 12:22:09 51°6.87 2°31.08 18.57909 4.516575 34.247779 4.140324
2003-06-17 12:23:09 51°7.05 2°31.08 18.105019 4.509297 34.236876 4.106614
2003-06-17 12:24:09 51°7.25 2°31.08 18.440738 4.508348 34.254921 3.567264
2003-06-17 12:25:09 51°7.45 2°31.12 18.762324 4.512989 34.243383 3.836939
2003-06-17 12:26:09 51°7.61 2°31.38 18.672726 4.519634 34.227726 4.443708
2003-06-17 12:27:09 51°7.76 2°31.64 18.544352 4.521743 34.212375 4.140324
2003-06-17 12:28:09 51°7.91 2°31.95 18.609271 4.522693 34.221629 4.34258
2003-06-17 12:29:09 51°8.04 2°32.28 18.669345 4.519528 34.208093 4.207742
2003-06-17 12:30:09 51°8.15 2°32.62 18.401087 4.51668 34.228078 3.938067
2003-06-17 12:31:09 51°8.27 2°32.96 18.558109 4.5209 34.212469 4.275161
2003-06-17 12:32:09 51°8.39 2°33.31 18.854809 4.523642 34.21337 4.34258
2003-06-17 12:33:09 51°8.51 2°33.66 18.750708 4.520372 34.233385 4.207742
2003-06-17 12:34:09 51°8.63 2°34 18.677015 4.523431 34.218827 4.443708
2003-06-17 12:35:13 51°8.76 2°34.38 18.507613 4.522165 34.208705 4.207742
2003-06-17 12:36:13 51°8.88 2°34.73 18.481441 4.513305 34.227277 3.634683
2003-06-17 12:37:13 51°9 2°35.07 18.602418 4.508769 34.240891 3.634683
2003-06-17 12:38:13 51°9.12 2°35.42 18.386512 4.508664 34.232101 3.634683
2003-06-17 12:39:13 51°9.24 2°35.77 18.4438 4.508875 34.241181 3.533554
2003-06-17 12:40:13 51°9.37 2°36.13 18.546212 4.506449 34.244233 3.061623
2003-06-17 12:41:13 51°9.49 2°36.48 18.156681 4.502862 34.250799 2.488563
2003-06-17 12:42:13 51°9.6 2°36.83 18.483633 4.502968 34.255959 2.286306
2003-06-17 12:43:13 51°9.72 2°37.18 18.26018 4.499909 34.247552 2.252597
2003-06-17 12:44:13 51°9.84 2°37.53 18.37852 4.502651 34.253872 2.387435
2003-06-17 12:45:13 51°9.96 2°37.89 18.321012 4.502651 34.249002 2.353725
2003-06-17 12:46:13 51°10.08 2°38.24 18.627719 4.501702 34.25979 2.151469
2003-06-17 12:47:13 51°10.2 2°38.6 18.317406 4.499487 34.261628 1.814375
2003-06-17 12:48:13 51°10.32 2°38.95 18.207848 4.499698 34.264037 1.679537
2003-06-17 12:49:13 51°10.43 2°39.31 18.236032 4.498432 34.263609 1.780665
2003-06-17 12:50:13 51°10.48 2°39.71 18.395456 4.497377 34.2601 1.881794
2003-06-17 12:51:13 51°10.52 2°40.1 18.267979 4.499909 34.260348 1.645828
2003-06-17 12:52:13 51°10.57 2°40.5 18.427868 4.501702 34.263446 1.612118
2003-06-17 12:53:13 51°10.62 2°40.9 18.203945 4.504339 34.267034 1.713247
2003-06-17 12:54:13 51°10.68 2°41.29 18.804939 4.504866 34.252655 1.679537
2003-06-17 12:55:13 51°10.75 2°41.69 18.842551 4.52132 34.130504 3.702101
2003-06-17 12:56:13 51°10.82 2°42.08 18.595276 4.532713 34.138533 4.983059
2003-06-17 12:57:13 51°10.89 2°42.47 18.925151 4.530075 34.110301 5.219024
2003-06-17 12:58:13 51°10.95 2°42.86 18.735589 4.534188 34.065532 5.623537
2003-06-17 12:59:13 51°11.02 2°43.25 18.767307 4.533028 34.050406 5.825794
2003-06-17 13:00:13 51°11.09 2°43.64 18.970624 4.531129 34.035622 6.634819
2003-06-17 13:01:13 51°11.16 2°44.03 18.901232 4.530706 34.006496 6.702238
2003-06-17 13:02:13 51°11.25 2°44.42 19.160532 4.526803 34.002808 6.735947
2003-06-17 13:03:13 51°11.33 2°44.8 19.049545 4.524587 33.970506 7.17417
2003-06-17 13:04:13 51°11.42 2°45.19 18.67417 4.523743 33.957473 7.74723
2003-06-17 13:05:13 51°11.52 2°45.56 19.064105 4.522793 33.904453 8.792221
2003-06-17 13:06:13 51°11.62 2°45.94 18.994601 4.522159 33.877265 9.736084
2003-06-17 13:07:13 51°11.72 2°46.32 19.226476 4.520574 33.727004 12.567674
2003-06-17 13:08:13 51°11.81 2°46.7 19.597276 4.517725 33.66116 12.635093
2003-06-17 13:09:13 51°11.91 2°47.08 19.181742 4.516459 33.645353 13.005896
2003-06-17 13:10:13 51°12.03 2°47.45 19.245334 4.515509 33.597279 13.511537
2003-06-17 13:11:13 51°12.16 2°47.8 19.259199 4.505909 33.531253 15.60152
2003-06-17 13:12:13 51°12.29 2°48.16 19.450121 4.498523 33.444284 16.410546
2003-06-17 13:13:13 51°12.42 2°48.52 19.452772 4.499894 33.412374 17.556665
2003-06-17 13:14:13 51°12.55 2°48.88 19.381735 4.500632 33.376456 16.444255
2003-06-17 13:15:13 51°12.68 2°49.24 19.389491 4.493352 33.306289 16.410546
2003-06-17 13:16:13 51°12.8 2°49.6 19.510088 4.490398 33.266886 16.916187
2003-06-17 13:17:13 51°12.91 2°49.98 19.784886 4.487338 33.234657 17.354409
2003-06-17 13:18:13 51°13.02 2°50.36 19.392063 4.481112 33.101613 19.107298
2003-06-17 13:19:13 51°13.13 2°50.73 19.551558 4.478897 33.081601 18.803913
2003-06-17 13:20:13 51°13.25 2°51.11 19.514489 4.475415 33.0228 18.43311
2003-06-17 13:21:13 51°13.38 2°51.47 19.587549 4.469507 32.94411 19.242136
2003-06-17 13:22:13 51°13.51 2°51.83 19.563652 4.456636 32.820034 20.995024
2003-06-17 13:23:13 51°13.64 2°52.19 20.016229 4.436909 32.658728 21.669212
2003-06-17 13:24:13 51°13.78 2°52.55 19.923646 4.428047 32.552392 22.006306
2003-06-17 13:25:13 51°13.93 2°52.89 19.558521 4.415178 32.461058 20.69164
2003-06-17 13:26:13 51°14.08 2°53.23 19.581769 4.400937 32.358979 18.43311
2003-06-17 13:27:13 51°14.22 2°53.53 19.770638 4.385853 32.249383 17.084734
2003-06-17 13:28:13 51°14.33 2°53.8 19.597846 4.369504 32.164057 17.388118
2003-06-17 13:29:13 51°14.41 2°54.04 19.645731 4.362964 32.096517 17.927469
2003-06-17 13:30:13 51°14.43 2°54.3 19.594753 4.359378 32.060998 18.365691
2003-06-17 13:31:13 51°14.44 2°54.55 19.603218 4.355475 32.041006 18.669076
2003-06-17 13:32:13 51°14.42 2°54.8 19.772546 4.362121 32.102782 18.163435
2003-06-17 13:33:13 51°14.39 2°55 19.448898 4.381739 32.183091 20.489383